createdAt,value
2023-04-27T00:00:27.289Z,995.69
2023-04-27T00:01:27.240Z,995.72
2023-04-27T00:02:27.349Z,995.72
2023-04-27T00:03:27.399Z,995.72
2023-04-27T00:04:27.555Z,995.73
2023-04-27T00:05:27.249Z,995.74
2023-04-27T00:06:27.184Z,995.74
2023-04-27T00:07:27.130Z,995.73
2023-04-27T00:08:27.139Z,995.75
2023-04-27T00:09:27.119Z,995.76
2023-04-27T00:10:27.084Z,995.75
2023-04-27T00:11:27.089Z,995.74
2023-04-27T00:12:27.094Z,995.74
2023-04-27T00:13:27.040Z,995.74
2023-04-27T00:14:27.014Z,995.73
2023-04-27T00:15:26.993Z,995.76
2023-04-27T00:16:26.997Z,995.73
2023-04-27T00:17:26.992Z,995.75
2023-04-27T00:18:26.939Z,995.75
2023-04-27T00:19:26.974Z,995.72
2023-04-27T00:20:26.904Z,995.73
2023-04-27T00:21:26.887Z,995.74
2023-04-27T00:22:26.869Z,995.72
2023-04-27T00:23:26.882Z,995.69
2023-04-27T00:24:26.920Z,995.69
2023-04-27T00:25:26.861Z,995.69
2023-04-27T00:26:26.832Z,995.70
2023-04-27T00:27:26.804Z,995.71
2023-04-27T00:28:26.774Z,995.69
2023-04-27T00:29:26.769Z,995.70
2023-04-27T00:30:26.753Z,995.67
2023-04-27T00:31:26.762Z,995.69
2023-04-27T00:32:26.740Z,995.63
2023-04-27T00:33:26.765Z,995.60
2023-04-27T00:34:26.674Z,995.60
2023-04-27T00:35:26.651Z,995.59
2023-04-27T00:36:26.639Z,995.59
2023-04-27T00:37:26.620Z,995.59
2023-04-27T00:38:26.663Z,995.55
2023-04-27T00:39:26.584Z,995.58
2023-04-27T00:40:26.577Z,995.53
2023-04-27T00:41:26.574Z,995.51
2023-04-27T00:42:26.565Z,995.53
2023-04-27T00:43:26.585Z,995.56
2023-04-27T00:44:26.504Z,995.57
2023-04-27T00:45:26.500Z,995.58
2023-04-27T00:46:26.598Z,995.58
2023-04-27T00:47:26.499Z,995.61
2023-04-27T00:48:26.439Z,995.55
2023-04-27T00:49:26.491Z,995.54
2023-04-27T00:50:26.396Z,995.51
2023-04-27T00:51:26.380Z,995.52
2023-04-27T00:52:26.366Z,995.56
2023-04-27T00:53:26.348Z,995.52
2023-04-27T00:54:26.328Z,995.51
2023-04-27T00:55:26.310Z,995.54
2023-04-27T00:56:26.353Z,995.51
2023-04-27T00:57:26.283Z,995.50
2023-04-27T00:58:26.265Z,995.49
2023-04-27T00:59:26.252Z,995.52
2023-04-27T01:00:26.229Z,995.48
2023-04-27T01:01:33.802Z,995.49
2023-04-27T01:03:31.073Z,995.50
2023-04-27T01:04:30.954Z,995.51
2023-04-27T01:06:35.465Z,995.51
2023-04-27T01:07:35.440Z,995.49
2023-04-27T01:09:40.228Z,995.46
2023-04-27T01:10:40.222Z,995.50
2023-04-27T01:12:33.798Z,995.53
2023-04-27T01:13:33.765Z,995.50
2023-04-27T01:15:38.124Z,995.50
2023-04-27T01:16:38.151Z,995.50
2023-04-27T01:18:42.784Z,995.51
2023-04-27T01:19:42.771Z,995.56
2023-04-27T01:20:42.725Z,995.52
2023-04-27T01:21:42.709Z,995.52
2023-04-27T01:22:42.687Z,995.57
2023-04-27T01:23:42.672Z,995.54
2023-04-27T01:24:42.676Z,995.56
2023-04-27T01:25:42.642Z,995.55
2023-04-27T01:26:42.620Z,995.54
2023-04-27T01:27:42.600Z,995.54
2023-04-27T01:28:42.582Z,995.60
2023-04-27T01:29:42.565Z,995.59
2023-04-27T01:30:42.548Z,995.60
2023-04-27T01:31:42.587Z,995.60
2023-04-27T01:32:42.590Z,995.57
2023-04-27T01:33:42.500Z,995.59
2023-04-27T01:34:42.472Z,995.59
2023-04-27T01:35:42.479Z,995.59
2023-04-27T01:36:42.445Z,995.57
2023-04-27T01:37:42.426Z,995.58
2023-04-27T01:38:42.412Z,995.59
2023-04-27T01:39:42.392Z,995.60
2023-04-27T01:40:42.372Z,995.61
2023-04-27T01:41:42.354Z,995.62
2023-04-27T01:42:42.367Z,995.65
2023-04-27T01:43:42.324Z,995.60
2023-04-27T01:44:42.306Z,995.64
2023-04-27T01:45:42.283Z,995.62
2023-04-27T01:46:42.323Z,995.64
2023-04-27T01:47:42.308Z,995.65
2023-04-27T01:48:42.262Z,995.64
2023-04-27T01:49:42.217Z,995.63
2023-04-27T01:50:42.197Z,995.64
2023-04-27T01:51:42.182Z,995.66
2023-04-27T01:52:42.161Z,995.71
2023-04-27T01:53:42.143Z,995.74
2023-04-27T01:54:42.119Z,995.72
2023-04-27T01:55:42.111Z,995.75
2023-04-27T01:56:42.091Z,995.79
2023-04-27T01:57:42.097Z,995.79
2023-04-27T01:58:42.058Z,995.80
2023-04-27T01:59:42.043Z,995.76
2023-04-27T02:00:42.016Z,995.79
2023-04-27T02:01:42.078Z,995.82
2023-04-27T02:02:42.127Z,995.79
2023-04-27T02:03:42.095Z,995.80
2023-04-27T02:04:42.155Z,995.80
2023-04-27T02:05:41.929Z,995.81
2023-04-27T02:06:41.909Z,995.81
2023-04-27T02:07:41.897Z,995.83
2023-04-27T02:08:41.875Z,995.79
2023-04-27T02:09:41.856Z,995.79
2023-04-27T02:10:41.839Z,995.81
2023-04-27T02:11:41.827Z,995.78
2023-04-27T02:12:41.799Z,995.78
2023-04-27T02:13:41.810Z,995.81
2023-04-27T02:14:41.792Z,995.78
2023-04-27T02:15:41.830Z,995.81
2023-04-27T02:16:41.801Z,995.76
2023-04-27T02:17:41.729Z,995.75
2023-04-27T02:18:41.725Z,995.83
2023-04-27T02:19:41.672Z,995.80
2023-04-27T02:20:41.648Z,995.82
2023-04-27T02:21:41.643Z,995.81
2023-04-27T02:22:41.610Z,995.88
2023-04-27T02:23:41.597Z,995.85
2023-04-27T02:24:41.579Z,995.85
2023-04-27T02:25:41.559Z,995.83
2023-04-27T02:26:41.542Z,995.86
2023-04-27T02:27:41.531Z,995.87
2023-04-27T02:28:41.504Z,995.85
2023-04-27T02:29:41.489Z,995.85
2023-04-27T02:30:41.471Z,995.84
2023-04-27T02:31:41.465Z,995.85
2023-04-27T02:32:41.509Z,995.84
2023-04-27T02:33:41.419Z,995.86
2023-04-27T02:34:41.398Z,995.87
2023-04-27T02:35:41.386Z,995.84
2023-04-27T02:36:41.383Z,995.85
2023-04-27T02:37:41.347Z,995.88
2023-04-27T02:38:41.321Z,995.90
2023-04-27T02:39:41.309Z,995.88
2023-04-27T02:40:41.289Z,995.88
2023-04-27T02:41:41.269Z,995.91
2023-04-27T02:42:41.261Z,995.91
2023-04-27T02:43:41.237Z,995.89
2023-04-27T02:44:41.221Z,995.90
2023-04-27T02:45:41.193Z,995.88
2023-04-27T02:46:41.218Z,995.93
2023-04-27T02:47:41.200Z,995.91
2023-04-27T02:48:41.140Z,995.91
2023-04-27T02:49:41.123Z,995.96
2023-04-27T02:50:41.099Z,995.95
2023-04-27T02:51:41.081Z,995.94
2023-04-27T02:52:41.065Z,995.95
2023-04-27T02:53:41.069Z,995.93
2023-04-27T02:54:41.054Z,996.00
2023-04-27T02:55:41.011Z,995.94
2023-04-27T02:56:40.988Z,995.97
2023-04-27T02:57:40.973Z,995.93
2023-04-27T02:58:40.951Z,995.96
2023-04-27T02:59:40.943Z,995.98
2023-04-27T03:00:40.912Z,995.99
2023-04-27T03:01:40.934Z,995.96
2023-04-27T03:02:41.063Z,995.94
2023-04-27T03:03:41.053Z,995.98
2023-04-27T03:04:40.869Z,995.99
2023-04-27T03:05:40.825Z,995.95
2023-04-27T03:06:40.805Z,995.92
2023-04-27T03:07:40.784Z,995.94
2023-04-27T03:08:40.766Z,995.95
2023-04-27T03:09:40.778Z,995.89
2023-04-27T03:10:40.729Z,995.88
2023-04-27T03:11:40.731Z,995.89
2023-04-27T03:12:40.697Z,995.85
2023-04-27T03:13:40.673Z,995.85
2023-04-27T03:14:40.656Z,995.87
2023-04-27T03:15:40.634Z,995.83
2023-04-27T03:16:40.654Z,995.79
2023-04-27T03:17:40.624Z,995.78
2023-04-27T03:18:40.590Z,995.80
2023-04-27T03:19:40.560Z,995.79
2023-04-27T03:20:40.542Z,995.77
2023-04-27T03:21:40.520Z,995.79
2023-04-27T03:22:40.505Z,995.81
2023-04-27T03:23:40.492Z,995.79
2023-04-27T03:24:40.468Z,995.79
2023-04-27T03:25:40.452Z,995.78
2023-04-27T03:26:40.438Z,995.79
2023-04-27T03:27:40.418Z,995.79
2023-04-27T03:28:40.392Z,995.76
2023-04-27T03:29:40.395Z,995.78
2023-04-27T03:30:40.366Z,995.79
2023-04-27T03:31:40.381Z,995.81
2023-04-27T03:32:40.425Z,995.79
2023-04-27T03:33:40.296Z,995.85
2023-04-27T03:34:40.283Z,995.82
2023-04-27T03:35:40.263Z,995.86
2023-04-27T03:36:40.239Z,995.84
2023-04-27T03:37:40.224Z,995.85
2023-04-27T03:38:40.225Z,995.85
2023-04-27T03:39:40.197Z,995.91
2023-04-27T03:40:40.166Z,995.90
2023-04-27T03:41:40.146Z,995.88
2023-04-27T03:42:40.137Z,995.92
2023-04-27T03:43:40.286Z,995.87
2023-04-27T03:44:40.091Z,995.88
2023-04-27T03:45:40.113Z,995.87
2023-04-27T03:46:40.055Z,995.92
2023-04-27T03:47:40.131Z,995.87
2023-04-27T03:48:40.019Z,995.82
2023-04-27T03:49:39.995Z,995.83
2023-04-27T03:50:39.988Z,995.83
2023-04-27T03:51:39.965Z,995.82
2023-04-27T03:52:39.941Z,995.76
2023-04-27T03:53:39.919Z,995.78
2023-04-27T03:54:39.903Z,995.75
2023-04-27T03:55:39.884Z,995.77
2023-04-27T03:56:39.868Z,995.72
2023-04-27T03:57:39.848Z,995.71
2023-04-27T03:58:39.845Z,995.73
2023-04-27T03:59:39.805Z,995.67
2023-04-27T04:00:39.795Z,995.70
2023-04-27T04:01:39.799Z,995.72
2023-04-27T04:02:39.880Z,995.73
2023-04-27T04:03:39.781Z,995.71
2023-04-27T04:04:39.928Z,995.76
2023-04-27T04:05:39.695Z,995.75
2023-04-27T04:06:39.676Z,995.77
2023-04-27T04:07:39.655Z,995.79
2023-04-27T04:08:39.637Z,995.80
2023-04-27T04:09:39.624Z,995.82
2023-04-27T04:10:39.597Z,995.84
2023-04-27T04:11:39.586Z,995.82
2023-04-27T04:12:39.594Z,995.82
2023-04-27T04:13:39.584Z,995.87
2023-04-27T04:14:39.525Z,995.83
2023-04-27T04:15:39.537Z,995.90
2023-04-27T04:16:39.488Z,995.92
2023-04-27T04:17:39.540Z,995.91
2023-04-27T04:18:39.445Z,995.95
2023-04-27T04:19:39.431Z,995.97
2023-04-27T04:20:39.418Z,995.97
2023-04-27T04:21:39.393Z,995.96
2023-04-27T04:22:39.372Z,995.99
2023-04-27T04:23:39.354Z,995.95
2023-04-27T04:24:39.334Z,995.99
2023-04-27T04:25:39.316Z,996.04
2023-04-27T04:26:39.300Z,996.01
2023-04-27T04:27:39.282Z,995.99
2023-04-27T04:28:39.262Z,995.95
2023-04-27T04:29:39.244Z,995.93
2023-04-27T04:30:39.220Z,995.95
2023-04-27T04:31:39.244Z,995.91
2023-04-27T04:32:39.202Z,995.88
2023-04-27T04:33:39.178Z,995.82
2023-04-27T04:34:39.151Z,995.86
2023-04-27T04:35:39.130Z,995.85
2023-04-27T04:36:39.114Z,995.84
2023-04-27T04:37:39.099Z,995.84
2023-04-27T04:38:39.076Z,995.84
2023-04-27T04:39:39.058Z,995.87
2023-04-27T04:40:39.044Z,995.85
2023-04-27T04:41:39.031Z,995.81
2023-04-27T04:42:39.009Z,995.83
2023-04-27T04:43:38.985Z,995.87
2023-04-27T04:44:38.981Z,995.87
2023-04-27T04:45:38.959Z,995.89
2023-04-27T04:46:38.955Z,995.83
2023-04-27T04:47:38.955Z,995.83
2023-04-27T04:48:38.897Z,995.89
2023-04-27T04:49:38.913Z,995.84
2023-04-27T04:50:38.961Z,995.90
2023-04-27T04:51:38.870Z,995.86
2023-04-27T04:52:38.833Z,995.86
2023-04-27T04:53:38.805Z,995.87
2023-04-27T04:54:38.790Z,995.84
2023-04-27T04:55:38.788Z,995.83
2023-04-27T04:56:38.750Z,995.88
2023-04-27T04:57:38.733Z,995.89
2023-04-27T04:58:38.713Z,995.90
2023-04-27T04:59:38.699Z,995.92
2023-04-27T05:00:38.689Z,995.91
2023-04-27T05:01:38.669Z,995.95
2023-04-27T05:02:38.737Z,995.95
2023-04-27T05:03:38.781Z,995.99
2023-04-27T05:04:38.717Z,995.98
2023-04-27T05:05:38.585Z,995.97
2023-04-27T05:06:38.571Z,995.95
2023-04-27T05:07:38.562Z,995.99
2023-04-27T05:08:38.559Z,996.00
2023-04-27T05:09:38.753Z,995.99
2023-04-27T05:10:38.643Z,995.99
2023-04-27T05:11:38.520Z,996.00
2023-04-27T05:12:38.465Z,996.03
2023-04-27T05:13:38.465Z,996.06
2023-04-27T05:14:38.434Z,996.08
2023-04-27T05:15:38.413Z,996.05
2023-04-27T05:16:38.403Z,996.02
2023-04-27T05:17:38.400Z,996.02
2023-04-27T05:18:38.364Z,996.02
2023-04-27T05:19:38.369Z,996.05
2023-04-27T05:20:38.331Z,996.04
2023-04-27T05:21:38.307Z,996.04
2023-04-27T05:22:38.301Z,996.06
2023-04-27T05:23:38.275Z,996.06
2023-04-27T05:24:38.262Z,996.07
2023-04-27T05:25:38.246Z,996.06
2023-04-27T05:26:38.227Z,996.09
2023-04-27T05:27:38.209Z,996.13
2023-04-27T05:28:38.201Z,996.10
2023-04-27T05:29:38.173Z,996.14
2023-04-27T05:30:38.154Z,996.15
2023-04-27T05:31:38.165Z,996.21
2023-04-27T05:32:38.157Z,996.21
2023-04-27T05:33:38.105Z,996.19
2023-04-27T05:34:38.094Z,996.23
2023-04-27T05:35:38.091Z,996.26
2023-04-27T05:36:38.059Z,996.24
2023-04-27T05:37:38.038Z,996.26
2023-04-27T05:38:38.020Z,996.24
2023-04-27T05:39:38.002Z,996.27
2023-04-27T05:40:37.980Z,996.28
2023-04-27T05:41:37.967Z,996.29
2023-04-27T05:42:37.964Z,996.28
2023-04-27T05:43:37.936Z,996.32
2023-04-27T05:44:37.934Z,996.31
2023-04-27T05:45:37.956Z,996.31
2023-04-27T05:46:38.930Z,996.34
2023-04-27T05:47:37.889Z,996.34
2023-04-27T05:48:37.862Z,996.32
2023-04-27T05:49:37.844Z,996.39
2023-04-27T05:50:37.826Z,996.37
2023-04-27T05:51:37.843Z,996.44
2023-04-27T05:52:38.304Z,996.43
2023-04-27T05:53:37.766Z,996.44
2023-04-27T05:54:37.776Z,996.45
2023-04-27T05:55:37.739Z,996.42
2023-04-27T05:56:37.720Z,996.45
2023-04-27T05:57:37.725Z,996.41
2023-04-27T05:58:37.691Z,996.47
2023-04-27T05:59:37.674Z,996.43
2023-04-27T06:00:37.663Z,996.42
2023-04-27T06:01:37.639Z,996.41
2023-04-27T06:02:37.931Z,996.44
2023-04-27T06:03:37.726Z,996.41
2023-04-27T06:04:37.679Z,996.42
2023-04-27T06:05:37.602Z,996.46
2023-04-27T06:06:37.570Z,996.48
2023-04-27T06:07:37.621Z,996.47
2023-04-27T06:08:37.547Z,996.48
2023-04-27T06:09:37.511Z,996.50
2023-04-27T06:10:37.498Z,996.51
2023-04-27T06:11:37.482Z,996.58
2023-04-27T06:12:37.466Z,996.57
2023-04-27T06:13:37.455Z,996.60
2023-04-27T06:14:37.433Z,996.57
2023-04-27T06:15:37.467Z,996.56
2023-04-27T06:16:37.398Z,996.56
2023-04-27T06:17:37.438Z,996.57
2023-04-27T06:18:37.365Z,996.58
2023-04-27T06:19:37.351Z,996.58
2023-04-27T06:20:37.364Z,996.57
2023-04-27T06:21:37.316Z,996.63
2023-04-27T06:22:37.304Z,996.61
2023-04-27T06:23:37.299Z,996.65
2023-04-27T06:24:37.287Z,996.63
2023-04-27T06:25:37.315Z,996.71
2023-04-27T06:26:37.243Z,996.70
2023-04-27T06:27:37.226Z,996.71
2023-04-27T06:28:37.278Z,996.73
2023-04-27T06:29:37.228Z,996.72
2023-04-27T06:30:38.912Z,996.80
2023-04-27T06:31:37.187Z,996.73
2023-04-27T06:32:37.166Z,996.74
2023-04-27T06:33:37.131Z,996.69
2023-04-27T06:34:37.110Z,996.71
2023-04-27T06:35:37.103Z,996.73
2023-04-27T06:36:37.094Z,996.79
2023-04-27T06:37:37.070Z,996.74
2023-04-27T06:38:37.054Z,996.77
2023-04-27T06:39:37.041Z,996.80
2023-04-27T06:40:37.076Z,996.80
2023-04-27T06:41:37.009Z,996.84
2023-04-27T06:42:37.020Z,996.81
2023-04-27T06:43:36.982Z,996.82
2023-04-27T06:44:36.962Z,996.83
2023-04-27T06:45:36.956Z,996.86
2023-04-27T06:46:36.992Z,996.83
2023-04-27T06:47:36.915Z,996.87
2023-04-27T06:48:36.909Z,996.88
2023-04-27T06:49:36.892Z,996.93
2023-04-27T06:50:36.888Z,996.91
2023-04-27T06:51:36.856Z,996.89
2023-04-27T06:52:36.851Z,996.87
2023-04-27T06:53:36.836Z,996.89
2023-04-27T06:54:36.817Z,996.90
2023-04-27T06:55:36.866Z,996.90
2023-04-27T06:56:36.793Z,996.89
2023-04-27T06:57:36.900Z,996.88
2023-04-27T06:58:36.771Z,996.90
2023-04-27T06:59:36.745Z,996.90
2023-04-27T07:00:36.731Z,996.86
2023-04-27T07:01:36.764Z,996.91
2023-04-27T07:02:36.851Z,996.90
2023-04-27T07:03:36.960Z,996.89
2023-04-27T07:04:36.795Z,996.92
2023-04-27T07:05:36.661Z,996.88
2023-04-27T07:06:36.653Z,996.88
2023-04-27T07:07:36.686Z,996.87
2023-04-27T07:08:36.625Z,996.88
2023-04-27T07:09:36.618Z,996.91
2023-04-27T07:10:36.598Z,996.89
2023-04-27T07:11:36.649Z,996.88
2023-04-27T07:12:36.576Z,996.89
2023-04-27T07:13:36.561Z,996.91
2023-04-27T07:14:36.551Z,997.00
2023-04-27T07:15:36.551Z,996.98
2023-04-27T07:16:36.653Z,997.00
2023-04-27T07:17:36.547Z,996.92
2023-04-27T07:18:36.545Z,996.97
2023-04-27T07:19:36.494Z,996.95
2023-04-27T07:20:36.468Z,996.93
2023-04-27T07:21:36.457Z,996.96
2023-04-27T07:22:36.444Z,997.03
2023-04-27T07:23:36.432Z,997.06
2023-04-27T07:24:36.422Z,997.00
2023-04-27T07:25:36.409Z,997.02
2023-04-27T07:26:36.401Z,997.07
2023-04-27T07:27:36.546Z,997.06
2023-04-27T07:28:36.373Z,997.09
2023-04-27T07:29:36.363Z,997.08
2023-04-27T07:30:36.362Z,997.06
2023-04-27T07:31:36.442Z,997.11
2023-04-27T07:32:36.356Z,997.10
2023-04-27T07:33:36.310Z,997.16
2023-04-27T07:34:49.064Z,997.09
2023-04-27T07:35:36.300Z,997.10
2023-04-27T07:36:36.280Z,997.15
2023-04-27T07:37:36.269Z,997.10
2023-04-27T07:38:36.260Z,997.08
2023-04-27T07:39:36.249Z,997.14
2023-04-27T07:40:36.245Z,997.11
2023-04-27T07:41:36.228Z,997.08
2023-04-27T07:42:36.222Z,997.10
2023-04-27T07:43:36.229Z,997.12
2023-04-27T07:44:36.205Z,997.11
2023-04-27T07:45:36.218Z,997.07
2023-04-27T07:46:36.197Z,997.09
2023-04-27T07:47:36.207Z,997.06
2023-04-27T07:48:36.170Z,997.09
2023-04-27T07:49:36.159Z,997.05
2023-04-27T07:50:36.181Z,997.03
2023-04-27T07:51:36.144Z,997.04
2023-04-27T07:52:36.149Z,997.07
2023-04-27T07:53:36.127Z,997.05
2023-04-27T07:54:36.124Z,997.04
2023-04-27T07:55:36.116Z,997.03
2023-04-27T07:56:36.104Z,997.04
2023-04-27T07:57:36.185Z,997.04
2023-04-27T07:58:36.087Z,997.08
2023-04-27T07:59:36.109Z,997.08
2023-04-27T08:00:36.076Z,997.05
2023-04-27T08:01:36.164Z,997.06
2023-04-27T08:02:36.271Z,997.08
2023-04-27T08:03:36.238Z,997.10
2023-04-27T08:04:36.474Z,997.10
2023-04-27T08:05:36.235Z,997.07
2023-04-27T08:06:36.926Z,997.08
2023-04-27T08:07:38.348Z,997.09
2023-04-27T08:08:36.058Z,997.10
2023-04-27T08:09:36.017Z,997.09
2023-04-27T08:10:36.013Z,997.04
2023-04-27T08:11:36.013Z,997.03
2023-04-27T08:12:36.043Z,997.08
2023-04-27T08:13:36.003Z,997.07
2023-04-27T08:14:35.986Z,997.10
2023-04-27T08:15:35.990Z,997.08
2023-04-27T08:16:35.980Z,997.04
2023-04-27T08:17:35.997Z,997.07
2023-04-27T08:18:35.968Z,997.05
2023-04-27T08:19:36.021Z,997.03
2023-04-27T08:20:35.953Z,996.99
2023-04-27T08:21:35.950Z,997.06
2023-04-27T08:22:35.996Z,997.02
2023-04-27T08:23:35.935Z,997.04
2023-04-27T08:24:35.939Z,997.04
2023-04-27T08:25:35.933Z,997.05
2023-04-27T08:26:35.916Z,997.05
2023-04-27T08:27:35.921Z,997.06
2023-04-27T08:28:35.913Z,997.02
2023-04-27T08:29:35.907Z,997.00
2023-04-27T08:30:35.894Z,997.05
2023-04-27T08:31:35.935Z,997.03
2023-04-27T08:32:35.949Z,996.99
2023-04-27T08:33:35.876Z,996.95
2023-04-27T08:34:35.874Z,996.94
2023-04-27T08:35:35.884Z,996.92
2023-04-27T08:36:35.886Z,996.95
2023-04-27T08:37:35.856Z,996.97
2023-04-27T08:38:35.880Z,996.97
2023-04-27T08:39:35.866Z,996.95
2023-04-27T08:40:35.835Z,996.99
2023-04-27T08:41:35.837Z,996.93
2023-04-27T08:42:35.882Z,996.90
2023-04-27T08:43:35.822Z,996.87
2023-04-27T08:44:35.833Z,996.84
2023-04-27T08:45:35.814Z,996.84
2023-04-27T08:46:35.835Z,996.89
2023-04-27T08:47:43.526Z,996.90
2023-04-27T08:48:35.805Z,996.91
2023-04-27T08:49:35.797Z,996.89
2023-04-27T08:50:35.788Z,996.86
2023-04-27T08:51:35.796Z,996.89
2023-04-27T08:52:35.793Z,996.86
2023-04-27T08:53:35.779Z,996.87
2023-04-27T08:54:35.778Z,996.83
2023-04-27T08:55:35.781Z,996.87
2023-04-27T08:56:35.779Z,996.87
2023-04-27T08:57:35.768Z,996.91
2023-04-27T08:58:35.787Z,996.87
2023-04-27T08:59:35.762Z,996.88
2023-04-27T09:00:35.761Z,996.86
2023-04-27T09:01:35.785Z,996.85
2023-04-27T09:02:35.892Z,996.86
2023-04-27T09:03:35.910Z,996.91
2023-04-27T09:04:35.877Z,996.88
2023-04-27T09:47:22.337Z,996.77
2023-04-27T09:48:22.255Z,996.75
2023-04-27T09:49:22.250Z,996.69
2023-04-27T09:50:22.257Z,996.69
2023-04-27T09:51:22.259Z,996.68
2023-04-27T09:52:22.251Z,996.67
2023-04-27T09:53:22.257Z,996.66
2023-04-27T09:54:22.259Z,996.71
2023-04-27T09:55:22.262Z,996.67
2023-04-27T09:56:22.292Z,996.66
2023-04-27T09:57:22.264Z,996.67
2023-04-27T09:58:22.277Z,996.63
2023-04-27T09:59:22.271Z,996.60
2023-04-27T10:00:22.282Z,996.60
2023-04-27T10:01:22.314Z,996.64
2023-04-27T10:02:24.858Z,996.63
2023-04-27T10:03:22.464Z,996.61
2023-04-27T10:04:22.561Z,996.61
2023-04-27T10:05:22.452Z,996.61
2023-04-27T10:06:22.295Z,996.57
2023-04-27T10:07:22.299Z,996.58
2023-04-27T10:08:22.303Z,996.55
2023-04-27T10:09:22.308Z,996.57
2023-04-27T10:10:22.308Z,996.55
2023-04-27T10:11:22.316Z,996.57
2023-04-27T10:12:22.318Z,996.50
2023-04-27T10:13:22.322Z,996.50
2023-04-27T10:14:22.333Z,996.52
2023-04-27T10:15:22.332Z,996.52
2023-04-27T10:16:22.404Z,996.50
2023-04-27T10:17:22.375Z,996.52
2023-04-27T10:18:22.349Z,996.49
2023-04-27T10:19:22.356Z,996.55
2023-04-27T10:20:22.358Z,996.53
2023-04-27T10:21:22.364Z,996.54
2023-04-27T10:22:23.858Z,996.52
2023-04-27T10:23:22.372Z,996.51
2023-04-27T10:24:22.397Z,996.54
2023-04-27T10:25:22.385Z,996.52
2023-04-27T10:26:22.389Z,996.52
2023-04-27T10:27:22.402Z,996.50
2023-04-27T10:28:22.405Z,996.52
2023-04-27T10:29:22.409Z,996.49
2023-04-27T10:30:22.419Z,996.54
2023-04-27T10:31:22.489Z,996.49
2023-04-27T10:32:22.454Z,996.44
2023-04-27T10:33:22.437Z,996.44
2023-04-27T10:34:22.443Z,996.51
2023-04-27T10:35:22.449Z,996.49
2023-04-27T10:36:22.453Z,996.50
2023-04-27T10:37:22.459Z,996.47
2023-04-27T10:38:22.470Z,996.50
2023-04-27T10:39:29.941Z,996.49
2023-04-27T10:40:22.484Z,996.51
2023-04-27T10:41:22.490Z,996.51
2023-04-27T10:42:22.495Z,996.51
2023-04-27T10:43:22.499Z,996.48
2023-04-27T10:44:22.509Z,996.47
2023-04-27T10:45:22.515Z,996.47
2023-04-27T10:46:22.541Z,996.47
2023-04-27T10:47:22.530Z,996.47
2023-04-27T10:48:22.544Z,996.45
2023-04-27T10:49:22.541Z,996.47
2023-04-27T10:50:22.553Z,996.34
2023-04-27T10:51:22.560Z,996.36
2023-04-27T10:52:22.568Z,996.38
2023-04-27T10:53:22.623Z,996.37
2023-04-27T10:54:22.586Z,996.43
2023-04-27T10:55:22.591Z,996.40
2023-04-27T10:56:22.587Z,996.42
2023-04-27T10:57:22.589Z,996.42
2023-04-27T10:58:22.612Z,996.35
2023-04-27T10:59:23.235Z,996.42
2023-04-27T11:00:22.675Z,996.39
2023-04-27T11:01:22.719Z,996.39
2023-04-27T11:02:22.758Z,996.39
2023-04-27T11:03:22.714Z,996.41
2023-04-27T11:04:22.671Z,996.45
2023-04-27T11:05:22.636Z,996.37
2023-04-27T11:06:22.632Z,996.41
2023-04-27T11:07:22.657Z,996.35
2023-04-27T11:08:22.673Z,996.33
2023-04-27T11:09:22.667Z,996.33
2023-04-27T11:10:22.657Z,996.30
2023-04-27T11:11:22.671Z,996.29
2023-04-27T11:12:22.677Z,996.26
2023-04-27T11:13:23.477Z,996.29
2023-04-27T11:14:22.686Z,996.27
2023-04-27T11:15:22.686Z,996.23
2023-04-27T11:16:22.710Z,996.23
2023-04-27T11:17:22.722Z,996.23
2023-04-27T11:18:22.697Z,996.23
2023-04-27T11:19:22.702Z,996.19
2023-04-27T11:20:22.707Z,996.18
2023-04-27T11:21:22.720Z,996.19
2023-04-27T11:22:22.723Z,996.22
2023-04-27T11:23:22.731Z,996.27
2023-04-27T11:24:22.736Z,996.25
2023-04-27T11:25:22.912Z,996.19
2023-04-27T11:26:22.735Z,996.25
2023-04-27T11:27:22.770Z,996.25
2023-04-27T11:28:22.757Z,996.26
2023-04-27T11:29:22.757Z,996.27
2023-04-27T11:30:22.762Z,996.27
2023-04-27T11:31:22.805Z,996.22
2023-04-27T11:32:22.864Z,996.17
2023-04-27T11:33:22.768Z,996.20
2023-04-27T11:34:23.038Z,996.20
2023-04-27T11:35:22.795Z,996.17
2023-04-27T11:36:22.791Z,996.15
2023-04-27T11:37:22.798Z,996.17
2023-04-27T11:38:22.893Z,996.19
2023-04-27T11:39:22.943Z,996.15
2023-04-27T11:40:24.488Z,996.20
2023-04-27T11:41:22.800Z,996.16
2023-04-27T11:42:22.810Z,996.17
2023-04-27T11:43:22.809Z,996.11
2023-04-27T11:44:22.816Z,996.11
2023-04-27T11:45:22.814Z,996.11
2023-04-27T11:46:22.831Z,996.07
2023-04-27T11:47:22.996Z,996.06
2023-04-27T11:48:22.836Z,996.03
2023-04-27T11:49:22.832Z,996.05
2023-04-27T11:50:22.832Z,996.08
2023-04-27T11:51:22.835Z,996.07
2023-04-27T11:52:22.855Z,996.05
2023-04-27T11:53:22.840Z,996.06
2023-04-27T11:54:22.846Z,996.07
2023-04-27T11:55:22.846Z,996.07
2023-04-27T11:56:22.850Z,996.06
2023-04-27T11:57:22.863Z,996.04
2023-04-27T11:58:22.857Z,996.01
2023-04-27T11:59:22.858Z,996.00
2023-04-27T12:00:22.860Z,996.02
2023-04-27T12:01:34.813Z,995.98
2023-04-27T12:02:22.934Z,995.98
2023-04-27T12:03:23.102Z,995.94
2023-04-27T12:04:23.046Z,995.95
2023-04-27T12:05:23.022Z,995.92
2023-04-27T12:07:22.883Z,995.94
2023-04-27T12:08:22.878Z,995.88
2023-04-27T12:09:22.875Z,995.86
2023-04-27T12:10:22.886Z,995.81
2023-04-27T12:11:22.896Z,995.83
2023-04-27T12:12:22.883Z,995.88
2023-04-27T12:13:22.883Z,995.79
2023-04-27T12:14:22.885Z,995.83
2023-04-27T12:15:22.881Z,995.78
2023-04-27T12:16:22.946Z,995.82
2023-04-27T12:17:22.904Z,995.84
2023-04-27T12:18:22.901Z,995.81
2023-04-27T12:19:22.885Z,995.83
2023-04-27T12:20:22.898Z,995.81
2023-04-27T12:21:22.912Z,995.81
2023-04-27T12:22:22.900Z,995.82
2023-04-27T12:23:22.889Z,995.80
2023-04-27T12:24:22.890Z,995.84
2023-04-27T12:25:22.895Z,995.76
2023-04-27T12:26:22.894Z,995.77
2023-04-27T12:27:22.893Z,995.75
2023-04-27T12:28:22.890Z,995.80
2023-04-27T12:29:22.889Z,995.74
2023-04-27T12:30:22.903Z,995.77
2023-04-27T12:31:24.737Z,995.74
2023-04-27T12:32:22.902Z,995.77
2023-04-27T12:33:23.053Z,995.72
2023-04-27T12:34:22.899Z,995.69
2023-04-27T12:35:22.903Z,995.68
2023-04-27T12:36:22.892Z,995.65
2023-04-27T12:37:24.863Z,995.61
2023-04-27T12:38:22.915Z,995.65
2023-04-27T12:39:22.893Z,995.62
2023-04-27T12:40:22.897Z,995.62
2023-04-27T12:41:22.886Z,995.57
2023-04-27T12:42:22.892Z,995.62
2023-04-27T12:43:22.902Z,995.62
2023-04-27T12:44:22.889Z,995.59
2023-04-27T12:45:22.885Z,995.53
2023-04-27T12:46:22.982Z,995.48
2023-04-27T12:47:43.080Z,995.45
2023-04-27T12:48:22.895Z,995.49
2023-04-27T12:49:22.895Z,995.54
2023-04-27T12:50:22.881Z,995.50
2023-04-27T12:51:22.879Z,995.49
2023-04-27T12:52:22.881Z,995.53
2023-04-27T12:53:22.875Z,995.53
2023-04-27T12:54:22.870Z,995.56
2023-04-27T12:55:33.076Z,995.48
2023-04-27T12:56:22.876Z,995.48
2023-04-27T12:57:22.868Z,995.58
2023-04-27T12:58:22.873Z,995.50
2023-04-27T12:59:22.880Z,995.59
2023-04-27T13:00:22.864Z,995.57
2023-04-27T13:01:22.902Z,995.53
2023-04-27T13:02:22.976Z,995.55
2023-04-27T13:03:23.061Z,995.51
2023-04-27T13:04:23.500Z,995.50
2023-04-27T13:05:22.853Z,995.49
2023-04-27T13:06:22.859Z,995.49
2023-04-27T13:07:22.850Z,995.38
2023-04-27T13:08:22.861Z,995.40
2023-04-27T13:09:22.833Z,995.42
2023-04-27T13:10:22.839Z,995.45
2023-04-27T13:11:22.824Z,995.42
2023-04-27T13:12:22.839Z,995.40
2023-04-27T13:13:22.820Z,995.41
2023-04-27T13:14:22.815Z,995.41
2023-04-27T13:15:22.815Z,995.37
2023-04-27T13:16:22.830Z,995.39
2023-04-27T13:17:22.800Z,995.35